createdAt,value
2022-08-07T00:02:39.724Z,101175.34
2022-08-07T00:05:05.706Z,101166.50
2022-08-07T00:07:40.311Z,101169.06
2022-08-07T00:10:29.641Z,101165.44
2022-08-07T00:13:23.443Z,101161.84
2022-08-07T00:15:54.909Z,101157.41
2022-08-07T00:18:25.279Z,101153.81
2022-08-07T00:20:56.822Z,101150.25
2022-08-07T00:23:28.402Z,101149.28
2022-08-07T00:26:06.820Z,101164.19
2022-08-07T00:28:45.987Z,101150.94
2022-08-07T00:31:25.954Z,101142.94
2022-08-07T00:34:08.839Z,101142.91
2022-08-07T00:36:38.542Z,101145.47
2022-08-07T00:39:16.687Z,101144.53
2022-08-07T00:42:04.981Z,101140.91
2022-08-07T00:44:34.773Z,101144.34
2022-08-07T00:47:03.465Z,101137.22
2022-08-07T00:50:19.309Z,101138.94
2022-08-07T00:52:23.568Z,101137.97
2022-08-07T00:54:54.783Z,101139.69
2022-08-07T00:57:25.258Z,101137.84
2022-08-07T00:59:55.259Z,101132.47
2022-08-07T01:02:28.838Z,101135.03
2022-08-07T01:04:58.665Z,101128.81
2022-08-07T01:07:29.829Z,101120.84
2022-08-07T01:10:06.578Z,101126.03
2022-08-07T01:12:44.775Z,101121.53
2022-08-07T01:15:35.725Z,101119.72
2022-08-07T01:18:16.848Z,101123.16
2022-08-07T01:20:57.293Z,101115.19
2022-08-07T01:23:37.979Z,101111.59
2022-08-07T01:26:12.128Z,101115.91
2022-08-07T01:28:45.726Z,101113.22
2022-08-07T01:31:17.895Z,101111.34
2022-08-07T01:33:55.211Z,101118.31
2022-08-07T01:36:34.039Z,101112.03
2022-08-07T01:39:12.374Z,101113.75
2022-08-07T01:42:07.261Z,101114.53
2022-08-07T01:44:37.225Z,101111.00
2022-08-07T01:47:14.498Z,101103.94
2022-08-07T01:49:55.014Z,101106.50
2022-08-07T01:52:29.833Z,101102.91
2022-08-07T01:55:01.965Z,101101.09
2022-08-07T01:58:01.340Z,101099.31
2022-08-07T02:00:32.043Z,101099.25
2022-08-07T02:03:18.471Z,101098.31
2022-08-07T02:05:59.798Z,101101.75
2022-08-07T02:08:31.525Z,101105.19
2022-08-07T02:11:03.719Z,101107.81
2022-08-07T02:13:56.921Z,101105.13
2022-08-07T02:16:32.938Z,101106.81
2022-08-07T02:19:05.606Z,101105.03
2022-08-07T02:21:58.802Z,101106.78
2022-08-07T02:24:29.930Z,101101.47
2022-08-07T02:27:02.946Z,101089.16
2022-08-07T02:29:36.794Z,101101.38
2022-08-07T02:32:13.545Z,101101.38
2022-08-07T02:34:51.115Z,101092.56
2022-08-07T02:37:24.431Z,101095.13
2022-08-07T02:40:02.486Z,101092.47
2022-08-07T02:42:50.579Z,101094.16
2022-08-07T02:45:59.325Z,101092.34
2022-08-07T02:48:15.637Z,101089.69
2022-08-07T02:50:49.315Z,101094.91
2022-08-07T02:53:23.709Z,101091.38
2022-08-07T02:56:03.014Z,101093.06
2022-08-07T02:58:39.677Z,101090.41
2022-08-07T03:01:18.694Z,101092.09
2022-08-07T03:03:50.475Z,101088.53
2022-08-07T03:06:32.938Z,101088.47
2022-08-07T03:09:05.365Z,101093.72
2022-08-07T03:11:38.511Z,101079.63
2022-08-07T03:14:10.849Z,101089.19
2022-08-07T03:16:40.983Z,101083.88
2022-08-07T03:19:11.372Z,101091.75
2022-08-07T03:21:50.316Z,101095.19
2022-08-07T03:24:27.442Z,101096.94
2022-08-07T03:27:01.909Z,101091.66
2022-08-07T03:29:51.185Z,101093.34
2022-08-07T03:32:25.805Z,101090.75
2022-08-07T03:35:17.762Z,101089.03
2022-08-07T03:37:53.943Z,101085.47
2022-08-07T03:40:31.098Z,101085.53
2022-08-07T03:43:13.539Z,101082.91
2022-08-07T03:45:48.463Z,101088.16
2022-08-07T03:48:19.859Z,101083.78
2022-08-07T03:50:55.978Z,101081.13
2022-08-07T03:53:30.270Z,101085.44
2022-08-07T03:56:32.552Z,101075.72
2022-08-07T03:59:13.113Z,101081.88
2022-08-07T04:01:47.453Z,101080.03
2022-08-07T04:04:21.304Z,101080.84
2022-08-07T04:06:54.268Z,101078.16
2022-08-07T04:09:29.431Z,101079.91
2022-08-07T04:12:27.000Z,101072.81
2022-08-07T04:14:59.494Z,101075.38
2022-08-07T04:18:57.970Z,101077.09
2022-08-07T04:20:22.289Z,101073.53
2022-08-07T04:23:01.571Z,101084.06
2022-08-07T04:25:39.518Z,101078.72
2022-08-07T04:28:13.384Z,101081.28
2022-08-07T04:30:55.447Z,101081.22
2022-08-07T04:33:32.103Z,101078.59
2022-08-07T04:36:06.427Z,101079.38
2022-08-07T04:38:35.886Z,101085.50
2022-08-07T04:41:05.059Z,101088.94
2022-08-07T04:44:12.056Z,101083.66
2022-08-07T04:47:05.022Z,101090.63
2022-08-07T04:49:58.173Z,101096.72
2022-08-07T04:52:46.706Z,101100.16
2022-08-07T04:58:13.692Z,101088.72
2022-08-07T05:01:43.755Z,101093.97
2022-08-07T05:04:17.796Z,101091.25
2022-08-07T05:07:19.546Z,101091.25
2022-08-07T05:10:00.727Z,101086.84
2022-08-07T05:12:46.101Z,101091.22
2022-08-07T05:15:24.108Z,101085.97
2022-08-07T05:18:08.729Z,101094.78
2022-08-07T05:20:42.723Z,101100.97
2022-08-07T05:23:17.499Z,101100.09
2022-08-07T05:26:11.218Z,101097.53
2022-08-07T05:28:40.832Z,101099.25
2022-08-07T05:31:21.119Z,101104.63
2022-08-07T05:34:04.585Z,101102.91
2022-08-07T05:36:39.145Z,101100.34
2022-08-07T05:40:16.759Z,101104.81
2022-08-07T05:42:12.461Z,101111.00
2022-08-07T05:44:46.755Z,101111.09
2022-08-07T05:47:38.344Z,101110.34
2022-08-07T05:50:22.223Z,101118.34
2022-08-07T05:52:50.885Z,101118.44
2022-08-07T05:55:23.813Z,101115.06
2022-08-07T05:58:13.295Z,101114.31
2022-08-07T06:00:46.312Z,101110.09
2022-08-07T06:03:21.287Z,101112.88
2022-08-07T06:05:56.504Z,101116.53
2022-08-07T06:08:30.946Z,101121.09
2022-08-07T06:11:03.767Z,101120.41
2022-08-07T06:14:12.539Z,101119.69
2022-08-07T06:16:24.439Z,101127.84
2022-08-07T06:18:59.865Z,101122.84
2022-08-07T06:22:16.401Z,101124.00
2022-08-07T06:24:45.475Z,101127.81
2022-08-07T06:27:07.832Z,101125.56
2022-08-07T06:29:38.815Z,101124.97
2022-08-07T06:32:08.470Z,101125.25
2022-08-07T06:34:36.950Z,101119.41
2022-08-07T06:37:09.512Z,101119.63
2022-08-07T06:40:13.206Z,101126.94
2022-08-07T06:42:37.232Z,101116.69
2022-08-07T06:45:25.946Z,101119.63
2022-08-07T06:47:59.803Z,101118.19
2022-08-07T06:50:43.222Z,101117.53
2022-08-07T06:53:49.213Z,101107.19
2022-08-07T06:56:14.906Z,101109.16
2022-08-07T07:00:13.791Z,101104.03
2022-08-07T07:01:48.812Z,101112.22
2022-08-07T07:04:32.424Z,101112.38
2022-08-07T07:07:10.789Z,101107.34
2022-08-07T07:09:49.120Z,101101.41
2022-08-07T07:12:31.298Z,101105.06
2022-08-07T07:15:23.585Z,101114.94
2022-08-07T07:18:01.838Z,101104.53
2022-08-07T07:20:37.825Z,101105.59
2022-08-07T07:24:06.491Z,101104.91
2022-08-07T07:26:34.046Z,101099.84
2022-08-07T07:29:56.079Z,101096.50
2022-08-07T07:31:51.544Z,101101.16
2022-08-07T07:34:30.551Z,101096.91
2022-08-07T07:37:14.289Z,101098.78
2022-08-07T07:39:55.352Z,101099.78
2022-08-07T07:42:32.862Z,101101.69
2022-08-07T07:45:03.015Z,101108.84
2022-08-07T07:47:42.852Z,101095.75
2022-08-07T07:50:33.517Z,101100.31
2022-08-07T07:53:13.498Z,101092.56
2022-08-07T07:55:57.586Z,101086.53
2022-08-07T07:58:29.748Z,101085.72
2022-08-07T08:00:59.687Z,101083.16
2022-08-07T08:04:09.620Z,101079.72
2022-08-07T08:06:20.415Z,101084.25
2022-08-07T08:08:51.463Z,101083.41
2022-08-07T08:11:59.878Z,101079.06
2022-08-07T08:14:10.770Z,101080.03
2022-08-07T08:16:41.507Z,101082.75
2022-08-07T08:20:18.691Z,101084.63
2022-08-07T08:22:32.974Z,101072.34
2022-08-07T08:25:26.943Z,101075.06
2022-08-07T08:28:24.109Z,101075.16
2022-08-07T08:31:14.692Z,101069.91
2022-08-07T08:33:49.447Z,101067.31
2022-08-07T08:36:29.922Z,101062.97
2022-08-07T08:39:02.895Z,101066.53
2022-08-07T08:41:58.244Z,101064.81
2022-08-07T08:44:44.413Z,101061.34
2022-08-07T08:47:25.019Z,101059.63
2022-08-07T08:50:04.656Z,101068.53
2022-08-07T08:52:40.934Z,101068.59
2022-08-07T08:55:54.868Z,101068.66
2022-08-07T08:58:28.647Z,101055.41
2022-08-07T09:01:14.590Z,101054.59
2022-08-07T09:03:55.309Z,101065.25
2022-08-07T09:06:36.718Z,101047.56
2022-08-07T09:09:21.158Z,101057.38
2022-08-07T09:12:20.027Z,101052.94
2022-08-07T09:14:59.759Z,101037.88
2022-08-07T09:17:59.368Z,101049.47
2022-08-07T09:20:35.360Z,101049.47
2022-08-07T09:24:33.475Z,101037.06
2022-08-07T09:26:17.206Z,101042.41
2022-08-07T09:30:04.214Z,101041.53
2022-08-07T09:31:51.759Z,101044.19
2022-08-07T09:34:27.248Z,101043.34
2022-08-07T09:37:03.076Z,101040.69
2022-08-07T09:39:54.115Z,101043.38
2022-08-07T09:42:41.866Z,101038.94
2022-08-07T09:46:28.604Z,101039.81
2022-08-07T09:48:19.547Z,101033.59
2022-08-07T09:52:09.206Z,101037.16
2022-08-07T09:54:02.882Z,101030.06
2022-08-07T09:56:59.931Z,101024.69
2022-08-07T10:00:00.748Z,101019.38
2022-08-07T10:04:03.322Z,101017.59
2022-08-07T10:06:26.824Z,101024.69
2022-08-07T10:09:34.136Z,101022.00
2022-08-07T10:12:26.506Z,101005.13
2022-08-07T10:15:19.673Z,101012.25
2022-08-07T10:18:03.431Z,100999.78
2022-08-07T10:20:44.308Z,100998.88
2022-08-07T10:24:05.347Z,101003.25
2022-08-07T10:26:45.000Z,100999.69
2022-08-07T10:29:51.911Z,101003.22
2022-08-07T10:32:51.080Z,101003.19
2022-08-07T10:35:56.280Z,101004.97
2022-08-07T10:38:48.659Z,101001.41
2022-08-07T10:41:46.461Z,101003.13
2022-08-07T10:44:28.738Z,100988.91
2022-08-07T10:47:16.814Z,100987.97
2022-08-07T10:49:56.345Z,100988.78
2022-08-07T10:52:34.082Z,100986.13
2022-08-07T10:55:27.032Z,100974.47
2022-08-07T10:58:10.163Z,100978.00
2022-08-07T11:00:50.534Z,100969.06
2022-08-07T11:03:37.779Z,100970.78
2022-08-07T11:06:22.942Z,100962.69
2022-08-07T11:09:03.569Z,100965.28
2022-08-07T11:11:38.089Z,100956.34
2022-08-07T11:14:44.974Z,100959.88
2022-08-07T11:17:09.026Z,100949.16
2022-08-07T11:19:46.719Z,100952.59
2022-08-07T11:22:33.256Z,100953.41
2022-08-07T11:25:17.418Z,100951.50
2022-08-07T11:28:01.137Z,100946.06
2022-08-07T11:30:41.687Z,100946.84
2022-08-07T11:33:53.831Z,100952.03
2022-08-07T11:36:25.285Z,100946.59
2022-08-07T11:39:10.502Z,100942.00
2022-08-07T11:42:02.192Z,100944.56
2022-08-07T11:44:52.296Z,100926.63
2022-08-07T11:47:56.614Z,100930.91
2022-08-07T11:50:44.521Z,100937.00
2022-08-07T11:53:43.392Z,100926.19
2022-08-07T11:56:46.361Z,100927.94
2022-08-07T12:00:10.444Z,100928.72
2022-08-07T12:02:57.255Z,100919.50
2022-08-07T12:05:41.630Z,100929.19
2022-08-07T12:08:25.886Z,100929.06
2022-08-07T12:11:21.263Z,100936.88
2022-08-07T12:13:56.457Z,100935.78
2022-08-07T12:16:30.525Z,100923.19
2022-08-07T12:19:14.618Z,100927.56
2022-08-07T12:22:37.259Z,100922.97
2022-08-07T12:26:00.901Z,100917.38
2022-08-07T12:28:08.567Z,100921.56
2022-08-07T12:30:46.486Z,100923.16
2022-08-07T12:33:28.350Z,100922.09
2022-08-07T12:36:02.285Z,100912.13
2022-08-07T12:38:42.639Z,100906.69
2022-08-07T12:41:13.877Z,100904.00
2022-08-07T12:44:03.586Z,100893.34
2022-08-07T12:46:58.537Z,100896.75
2022-08-07T12:49:48.640Z,100899.22
2022-08-07T12:52:28.761Z,100893.63
2022-08-07T12:55:16.489Z,100902.47
2022-08-07T12:58:00.355Z,100900.72
2022-08-07T13:00:49.680Z,100897.09
2022-08-07T13:04:02.278Z,100904.16
2022-08-07T13:07:00.604Z,100901.31
2022-08-07T13:10:38.978Z,100892.91
2022-08-07T13:13:46.734Z,100884.31
2022-08-07T13:16:17.153Z,100885.53
2022-08-07T13:18:58.014Z,100885.06
2022-08-07T13:21:37.687Z,100874.78
2022-08-07T13:24:29.278Z,100879.66
2022-08-07T13:27:05.624Z,100873.03
2022-08-07T13:29:47.752Z,100878.16
2022-08-07T13:32:31.865Z,100877.97
2022-08-07T13:35:09.197Z,100865.91
2022-08-07T13:37:59.092Z,100870.81
2022-08-07T13:40:41.174Z,100863.19
2022-08-07T13:43:15.067Z,100858.41
2022-08-07T13:46:12.455Z,100857.97
2022-08-07T13:48:39.275Z,100856.50
2022-08-07T13:51:27.371Z,100855.97
2022-08-07T13:54:08.099Z,100846.44
2022-08-07T13:56:41.281Z,100843.38
2022-08-07T13:59:25.480Z,100844.91
2022-08-07T14:02:05.320Z,100837.41
2022-08-07T14:04:48.941Z,100836.09
2022-08-07T14:07:22.908Z,100830.34
2022-08-07T14:10:02.928Z,100834.25
2022-08-07T14:12:54.827Z,100829.16
2022-08-07T14:15:32.107Z,100826.22
2022-08-07T14:18:27.135Z,100829.53
2022-08-07T14:21:08.175Z,100827.22
2022-08-07T14:24:00.826Z,100831.09
2022-08-07T14:26:39.024Z,100824.38
2022-08-07T14:30:06.394Z,100829.41
2022-08-07T14:32:04.318Z,100829.94
2022-08-07T14:34:34.878Z,100824.28
2022-08-07T14:37:17.798Z,100829.16
2022-08-07T14:40:17.666Z,100819.03
2022-08-07T14:43:55.621Z,100813.72
2022-08-07T14:45:48.691Z,100815.63
2022-08-07T14:48:28.319Z,100809.94
2022-08-07T14:51:04.760Z,100811.69
2022-08-07T14:54:09.847Z,100807.13
2022-08-07T14:56:30.809Z,100811.09
2022-08-07T14:59:04.486Z,100804.13
2022-08-07T15:01:50.946Z,100802.53
2022-08-07T15:04:25.203Z,100799.63
2022-08-07T15:06:54.903Z,100804.66
2022-08-07T15:10:00.765Z,100805.75
2022-08-07T15:12:25.828Z,100802.09
2022-08-07T15:15:07.850Z,100801.66
2022-08-07T15:20:54.596Z,100803.44
2022-08-07T15:25:14.124Z,100802.09
2022-08-07T15:26:32.353Z,100798.59
2022-08-07T15:30:09.386Z,100795.34
2022-08-07T15:31:57.637Z,100795.06
2022-08-07T15:34:36.085Z,100789.16
2022-08-07T15:37:08.106Z,100794.75
2022-08-07T15:39:56.381Z,100785.88
2022-08-07T15:42:51.766Z,100780.94
2022-08-07T15:45:58.322Z,100785.25
2022-08-07T15:48:32.512Z,100776.81
2022-08-07T15:51:10.052Z,100778.13
2022-08-07T15:53:52.839Z,100779.75
2022-08-07T15:56:33.368Z,100773.16
2022-08-07T15:59:05.600Z,100770.47
2022-08-07T16:01:41.349Z,100771.50
2022-08-07T16:04:15.334Z,100775.09
2022-08-07T16:06:50.312Z,100781.31
2022-08-07T16:09:41.917Z,100763.13
2022-08-07T16:12:25.159Z,100759.97
2022-08-07T16:15:55.191Z,100760.19
2022-08-07T16:18:50.380Z,100755.88
2022-08-07T16:22:01.288Z,100765.16
2022-08-07T16:24:03.841Z,100763.97
2022-08-07T16:26:59.320Z,100756.47
2022-08-07T16:30:11.186Z,100762.81
2022-08-07T16:32:46.465Z,100762.78
2022-08-07T16:35:51.720Z,100750.03
2022-08-07T16:39:00.614Z,100759.22
2022-08-07T16:41:54.411Z,100758.22
2022-08-07T16:45:15.462Z,100761.31
2022-08-07T16:47:56.399Z,100757.78
2022-08-07T16:50:48.257Z,100756.03
2022-08-07T16:54:02.671Z,100760.00
2022-08-07T16:56:37.624Z,100757.56
2022-08-07T16:59:17.284Z,100753.50
2022-08-07T17:02:00.163Z,100751.50
2022-08-07T17:04:58.720Z,100755.03
2022-08-07T17:07:55.729Z,100750.31
2022-08-07T17:10:34.058Z,100766.16
2022-08-07T17:14:19.266Z,100760.44
2022-08-07T17:16:45.446Z,100767.44
2022-08-07T17:20:00.983Z,100760.88
2022-08-07T17:22:36.520Z,100765.06
2022-08-07T17:25:15.713Z,100755.13
2022-08-07T17:27:59.511Z,100768.47
2022-08-07T17:30:57.743Z,100752.97
2022-08-07T17:34:18.213Z,100759.13
2022-08-07T17:36:25.844Z,100768.78
2022-08-07T17:39:02.373Z,100759.53
2022-08-07T17:42:03.635Z,100764.59
2022-08-07T17:44:45.595Z,100759.00
2022-08-07T17:47:41.863Z,100757.00
2022-08-07T17:50:19.813Z,100757.53
2022-08-07T17:52:55.252Z,100754.53
2022-08-07T17:56:00.313Z,100760.53
2022-08-07T17:58:31.410Z,100762.94
2022-08-07T18:01:21.028Z,100766.13
2022-08-07T18:04:08.066Z,100766.69
2022-08-07T18:06:57.916Z,100762.63
2022-08-07T18:09:48.325Z,100770.06
2022-08-07T18:12:32.512Z,100772.22
2022-08-07T18:15:09.710Z,100775.25
2022-08-07T18:18:44.762Z,100778.22
2022-08-07T18:21:07.069Z,100780.38
2022-08-07T18:23:50.690Z,100780.69
2022-08-07T18:26:42.807Z,100783.63
2022-08-07T18:30:05.471Z,100783.91
2022-08-07T18:32:25.982Z,100788.66
2022-08-07T18:35:12.820Z,100791.56
2022-08-07T18:38:55.627Z,100791.78
2022-08-07T18:41:09.346Z,100793.81
2022-08-07T18:43:59.168Z,100803.84
2022-08-07T18:46:43.154Z,100801.38
2022-08-07T18:50:32.865Z,100804.25
2022-08-07T18:52:51.683Z,100798.22
2022-08-07T18:55:41.214Z,100796.59
2022-08-07T18:58:24.296Z,100810.13
2022-08-07T19:01:06.174Z,100808.47
2022-08-07T19:03:43.882Z,100814.91
2022-08-07T19:06:22.177Z,100814.16
2022-08-07T19:09:09.589Z,100808.03
2022-08-07T19:12:17.918Z,100823.38
2022-08-07T19:16:02.909Z,100824.44
2022-08-07T19:18:09.053Z,100833.47
2022-08-07T19:21:08.282Z,100830.06
2022-08-07T19:23:58.767Z,100831.94
2022-08-07T19:27:09.296Z,100841.91
2022-08-07T19:31:05.545Z,100841.09
2022-08-07T19:32:26.470Z,100848.31
2022-08-07T19:35:02.947Z,100850.22
2022-08-07T19:37:55.536Z,100862.78
2022-08-07T19:40:31.407Z,100852.19
2022-08-07T19:43:09.611Z,100858.50
2022-08-07T19:46:07.922Z,100865.75
2022-08-07T19:48:42.260Z,100857.84
2022-08-07T19:51:20.014Z,100857.03
2022-08-07T19:54:34.267Z,100864.25
2022-08-07T19:57:52.207Z,100858.13
2022-08-07T19:59:41.444Z,100872.47
2022-08-07T20:02:19.775Z,100874.28
2022-08-07T20:04:56.076Z,100864.56
2022-08-07T20:07:46.606Z,100872.66
2022-08-07T20:10:37.371Z,100868.28
2022-08-07T20:13:23.652Z,100868.41
2022-08-07T20:15:55.316Z,100880.03
2022-08-07T20:18:33.632Z,100874.75
2022-08-07T20:21:20.888Z,100877.47
2022-08-07T20:23:54.838Z,100882.84
2022-08-07T20:26:38.647Z,100879.38
2022-08-07T20:29:47.693Z,100880.31
2022-08-07T20:32:11.451Z,100877.69
2022-08-07T20:34:52.696Z,100886.66
2022-08-07T20:37:26.170Z,100882.25
2022-08-07T20:40:03.600Z,100878.75
2022-08-07T20:42:35.300Z,100881.47
2022-08-07T20:45:33.538Z,100877.97
2022-08-07T20:47:58.436Z,100882.44
2022-08-07T20:50:30.574Z,100883.41
2022-08-07T20:53:00.749Z,100885.19
2022-08-07T20:55:32.207Z,100876.38
2022-08-07T20:58:11.758Z,100888.81
2022-08-07T21:00:46.537Z,100877.31
2022-08-07T21:03:16.603Z,100887.09
2022-08-07T21:05:56.322Z,100898.66
2022-08-07T21:08:37.851Z,100890.69
2022-08-07T21:11:14.238Z,100890.72
2022-08-07T21:14:16.325Z,100890.72
2022-08-07T21:16:55.895Z,100896.97
2022-08-07T21:19:32.407Z,100888.09
2022-08-07T21:22:19.310Z,100889.91
2022-08-07T21:25:12.343Z,100886.38
2022-08-07T21:28:02.579Z,100891.72
2022-08-07T21:30:41.887Z,100900.56
2022-08-07T21:33:17.683Z,100896.09
2022-08-07T21:36:05.955Z,100899.66
2022-08-07T21:38:49.714Z,100898.78
2022-08-07T21:41:38.365Z,100897.91
2022-08-07T21:44:32.018Z,100904.09
2022-08-07T21:47:12.335Z,100905.88
2022-08-07T21:50:02.693Z,100907.59
2022-08-07T21:52:44.850Z,100909.38
2022-08-07T21:55:27.925Z,100911.13
2022-08-07T21:58:30.280Z,100908.50
2022-08-07T22:01:05.201Z,100916.44
2022-08-07T22:03:46.943Z,100912.84
2022-08-07T22:06:29.959Z,100917.25
2022-08-07T22:09:07.150Z,100921.66
2022-08-07T22:12:05.510Z,100922.53
2022-08-07T22:14:59.497Z,100919.84
2022-08-07T22:17:38.890Z,100922.50
2022-08-07T22:20:23.330Z,100922.47
2022-08-07T22:22:57.547Z,100925.09
2022-08-07T22:25:36.779Z,100927.75
2022-08-07T22:28:31.091Z,100925.06
2022-08-07T22:31:07.531Z,100924.13
2022-08-07T22:33:56.747Z,100921.44
2022-08-07T22:36:38.543Z,100921.44
2022-08-07T22:39:18.939Z,100930.25
2022-08-07T22:42:03.599Z,100923.13
2022-08-07T22:44:59.142Z,100919.53
2022-08-07T22:47:56.518Z,100923.09
2022-08-07T22:50:40.459Z,100923.03
2022-08-07T22:54:08.837Z,100924.72
2022-08-07T22:56:17.091Z,100926.47
2022-08-07T22:59:11.067Z,100926.44
2022-08-07T23:01:59.035Z,100935.22
2022-08-07T23:04:57.647Z,100932.53
2022-08-07T23:08:07.326Z,100937.78
2022-08-07T23:11:13.236Z,100931.53
2022-08-07T23:14:14.925Z,100939.47
2022-08-07T23:17:03.762Z,100942.06
2022-08-07T23:20:05.985Z,100940.28
2022-08-07T23:22:52.257Z,100937.59
2022-08-07T23:25:33.473Z,100934.88
2022-08-07T23:28:21.156Z,100929.56
2022-08-07T23:31:11.610Z,100927.75
2022-08-07T23:34:36.005Z,100931.25
2022-08-07T23:37:29.232Z,100930.34
2022-08-07T23:40:09.269Z,100935.66
2022-08-07T23:42:53.371Z,100932.09
2022-08-07T23:46:01.416Z,100935.63
2022-08-07T23:48:30.285Z,100929.41
2022-08-07T23:51:03.765Z,100935.56
2022-08-07T23:54:05.082Z,100926.75
2022-08-07T23:56:53.539Z,100926.75
